createdAt,value
2018-02-15T00:00:26.237Z,23.87
2018-02-15T00:02:53.837Z,24.50
2018-02-15T00:05:22.206Z,21.55
2018-02-15T00:07:49.806Z,26.77
2018-02-15T00:10:17.374Z,24.10
2018-02-15T00:12:44.970Z,28.98
2018-02-15T00:15:12.595Z,24.77
2018-02-15T00:17:40.254Z,22.17
2018-02-15T00:20:07.841Z,23.30
2018-02-15T00:22:35.471Z,24.08
2018-02-15T00:25:03.039Z,19.85
2018-02-15T00:27:30.607Z,20.05
2018-02-15T00:29:58.199Z,21.83
2018-02-15T00:32:25.825Z,21.23
2018-02-15T00:34:53.427Z,21.87
2018-02-15T00:37:21.000Z,20.40
2018-02-15T00:39:49.394Z,20.27
2018-02-15T00:42:17.758Z,24.10
2018-02-15T00:44:45.390Z,19.37
2018-02-15T00:47:13.052Z,20.48
2018-02-15T00:49:40.691Z,17.37
2018-02-15T00:52:08.257Z,16.65
2018-02-15T00:54:35.833Z,21.75
2018-02-15T00:57:03.442Z,18.50
2018-02-15T00:59:31.072Z,20.15
2018-02-15T01:01:58.674Z,19.33
2018-02-15T01:04:26.283Z,19.10
2018-02-15T01:06:53.903Z,19.00
2018-02-15T01:09:21.492Z,21.35
2018-02-15T01:11:49.107Z,17.12
2018-02-15T01:14:16.739Z,15.70
2018-02-15T01:16:45.116Z,10.73
2018-02-15T01:19:12.696Z,11.35
2018-02-15T01:21:41.106Z,10.25
2018-02-15T01:24:08.692Z,11.88
2018-02-15T01:26:36.294Z,8.27
2018-02-15T01:29:04.671Z,13.50
2018-02-15T01:31:32.250Z,13.20
2018-02-15T01:33:59.848Z,15.93
2018-02-15T01:36:27.476Z,15.63
2018-02-15T01:38:55.122Z,18.83
2018-02-15T01:41:22.738Z,40.72
2018-02-15T01:43:50.349Z,21.40
2018-02-15T01:46:17.895Z,25.92
2018-02-15T01:48:45.538Z,16.98
2018-02-15T01:51:13.893Z,23.17
2018-02-15T01:53:41.506Z,17.27
2018-02-15T01:56:19.105Z,16.87
2018-02-15T01:58:46.722Z,17.95
2018-02-15T02:01:14.343Z,16.08
2018-02-15T02:03:41.959Z,20.42
2018-02-15T02:06:10.322Z,16.92
2018-02-15T02:08:37.907Z,19.05
2018-02-15T02:11:05.525Z,17.30
2018-02-15T02:13:33.154Z,17.95
2018-02-15T02:16:00.791Z,19.02
2018-02-15T02:18:29.114Z,18.00
2018-02-15T02:20:56.711Z,17.55
2018-02-15T02:23:25.090Z,16.10
2018-02-15T02:25:53.456Z,20.05
2018-02-15T02:28:21.062Z,17.90
2018-02-15T02:30:48.634Z,21.65
2018-02-15T02:33:16.262Z,20.65
2018-02-15T02:35:43.876Z,17.33
2018-02-15T02:38:11.482Z,16.92
2018-02-15T02:40:39.094Z,16.65
2018-02-15T02:43:06.706Z,17.50
2018-02-15T02:45:34.341Z,17.58
2018-02-15T02:48:01.905Z,13.98
2018-02-15T02:50:29.523Z,11.50
2018-02-15T02:52:57.107Z,12.57
2018-02-15T02:55:24.687Z,13.05
2018-02-15T02:57:52.327Z,11.05
2018-02-15T03:00:19.934Z,10.20
2018-02-15T03:02:47.556Z,18.45
2018-02-15T03:05:15.186Z,19.10
2018-02-15T03:07:42.762Z,18.27
2018-02-15T03:10:10.359Z,18.67
2018-02-15T03:12:38.739Z,21.55
2018-02-15T03:15:07.143Z,20.40
2018-02-15T03:17:34.778Z,25.30
2018-02-15T03:20:03.209Z,23.20
2018-02-15T03:22:30.835Z,24.70
2018-02-15T03:24:58.460Z,21.65
2018-02-15T03:27:26.061Z,29.48
2018-02-15T03:29:53.646Z,24.50
2018-02-15T03:32:21.220Z,25.17
2018-02-15T03:34:48.872Z,30.45
2018-02-15T03:37:16.528Z,24.15
2018-02-15T03:39:44.164Z,19.27
2018-02-15T03:42:11.779Z,17.77
2018-02-15T03:44:42.682Z,16.17
2018-02-15T03:47:10.242Z,19.12
2018-02-15T03:49:37.806Z,18.92
2018-02-15T03:52:05.451Z,15.27
2018-02-15T03:54:33.057Z,16.85
2018-02-15T03:57:00.676Z,14.90
2018-02-15T03:59:28.314Z,11.00
2018-02-15T04:01:55.893Z,15.63
2018-02-15T04:04:23.551Z,17.45
2018-02-15T04:06:51.134Z,20.35
2018-02-15T04:09:18.717Z,18.95
2018-02-15T04:11:46.331Z,22.48
2018-02-15T04:14:13.974Z,23.23
2018-02-15T04:16:41.561Z,21.42
2018-02-15T04:19:09.171Z,20.15
2018-02-15T04:21:36.776Z,21.75
2018-02-15T04:24:04.394Z,19.80
2018-02-15T04:26:32.028Z,20.83
2018-02-15T04:28:59.658Z,18.37
2018-02-15T04:31:27.251Z,18.77
2018-02-15T04:33:54.893Z,12.10
2018-02-15T04:36:22.526Z,18.52
2018-02-15T04:38:50.131Z,21.45
2018-02-15T04:41:17.707Z,22.65
2018-02-15T04:43:45.318Z,21.12
2018-02-15T04:46:12.884Z,23.20
2018-02-15T04:48:40.498Z,20.75
2018-02-15T04:51:08.110Z,22.17
2018-02-15T04:53:35.739Z,23.25
2018-02-15T04:56:04.127Z,22.48
2018-02-15T04:58:31.705Z,19.12
2018-02-15T05:00:59.316Z,21.77
2018-02-15T05:03:26.971Z,23.92
2018-02-15T05:05:54.579Z,22.95
2018-02-15T05:08:22.178Z,21.80
2018-02-15T05:10:49.772Z,23.23
2018-02-15T05:13:18.098Z,24.08
2018-02-15T05:15:45.674Z,23.85
2018-02-15T05:18:13.271Z,22.62
2018-02-15T05:20:41.633Z,24.90
2018-02-15T05:23:09.232Z,25.15
2018-02-15T05:25:36.812Z,23.25
2018-02-15T05:28:16.654Z,24.27
2018-02-15T05:30:45.023Z,26.65
2018-02-15T05:33:12.674Z,30.98
2018-02-15T05:35:40.297Z,31.50
2018-02-15T05:38:07.873Z,27.20
2018-02-15T05:40:36.237Z,23.80
2018-02-15T05:43:03.865Z,27.98
2018-02-15T05:45:31.430Z,27.55
2018-02-15T05:47:59.006Z,26.35
2018-02-15T05:50:26.647Z,27.40
2018-02-15T05:52:54.210Z,23.98
2018-02-15T05:55:21.782Z,25.02
2018-02-15T05:57:49.408Z,27.50
2018-02-15T06:00:16.974Z,24.73
2018-02-15T06:02:44.575Z,23.48
2018-02-15T06:05:12.183Z,24.80
2018-02-15T06:07:39.811Z,23.45
2018-02-15T06:10:08.178Z,30.77
2018-02-15T06:12:36.555Z,27.75
2018-02-15T06:15:04.948Z,36.33
2018-02-15T06:17:33.339Z,22.50
2018-02-15T06:20:00.976Z,23.05
2018-02-15T06:22:29.368Z,29.17
2018-02-15T06:24:57.796Z,27.60
2018-02-15T06:27:25.423Z,28.48
2018-02-15T06:29:53.059Z,22.55
2018-02-15T06:32:20.676Z,26.00
2018-02-15T06:34:48.304Z,23.92
2018-02-15T06:37:15.928Z,30.30
2018-02-15T06:39:43.578Z,31.42
2018-02-15T06:42:11.198Z,30.25
2018-02-15T06:44:38.814Z,28.60
2018-02-15T06:47:06.457Z,31.25
2018-02-15T06:49:34.092Z,26.00
2018-02-15T06:52:01.713Z,28.83
2018-02-15T06:54:30.107Z,31.50
2018-02-15T06:56:57.759Z,29.92
2018-02-15T06:59:26.115Z,27.23
2018-02-15T07:01:54.372Z,25.33
2018-02-15T07:04:22.028Z,28.45
2018-02-15T07:06:49.665Z,22.98
2018-02-15T07:09:17.300Z,24.90
2018-02-15T07:11:44.943Z,25.73
2018-02-15T07:14:13.368Z,25.92
2018-02-15T07:16:41.011Z,27.02
2018-02-15T07:19:08.647Z,26.50
2018-02-15T07:21:37.036Z,25.48
2018-02-15T07:24:05.437Z,24.30
2018-02-15T07:26:33.088Z,25.37
2018-02-15T07:29:00.722Z,23.23
2018-02-15T07:31:29.116Z,26.30
2018-02-15T07:33:56.766Z,21.58
2018-02-15T07:36:25.205Z,19.08
2018-02-15T07:38:52.795Z,21.12
2018-02-15T07:41:20.415Z,18.45
2018-02-15T07:43:48.069Z,21.50
2018-02-15T07:46:15.705Z,18.02
2018-02-15T07:48:43.342Z,18.55
2018-02-15T07:51:10.946Z,20.15
2018-02-15T07:53:38.566Z,22.70
2018-02-15T07:56:06.963Z,27.13
2018-02-15T07:58:35.355Z,44.20
2018-02-15T08:01:03.000Z,35.22
2018-02-15T08:03:31.380Z,32.50
2018-02-15T08:05:59.828Z,31.52
2018-02-15T08:08:27.487Z,28.35
2018-02-15T08:10:55.112Z,27.20
2018-02-15T08:13:22.750Z,25.58
2018-02-15T08:15:50.385Z,27.35
2018-02-15T08:18:18.029Z,32.20
2018-02-15T08:20:45.654Z,29.52
2018-02-15T08:23:13.290Z,31.40
2018-02-15T08:25:41.653Z,29.20
2018-02-15T08:28:10.045Z,35.30
2018-02-15T08:30:38.425Z,33.55
2018-02-15T08:33:06.067Z,33.10
2018-02-15T08:35:33.708Z,28.00
2018-02-15T08:38:01.357Z,27.00
2018-02-15T08:40:28.999Z,37.00
2018-02-15T08:42:56.594Z,31.52
2018-02-15T08:45:24.235Z,35.40
2018-02-15T08:47:51.887Z,31.75
2018-02-15T08:50:19.522Z,29.75
2018-02-15T08:52:47.110Z,45.65
2018-02-15T08:55:14.743Z,40.78
2018-02-15T08:57:42.393Z,34.35
2018-02-15T09:00:10.796Z,31.65
2018-02-15T09:02:38.440Z,29.65
2018-02-15T09:05:06.065Z,33.90
2018-02-15T09:07:33.693Z,29.65
2018-02-15T09:10:01.334Z,34.80
2018-02-15T09:12:28.962Z,25.70
2018-02-15T09:14:57.389Z,28.75
2018-02-15T09:17:25.016Z,32.10
2018-02-15T09:19:53.420Z,37.88
2018-02-15T09:22:21.061Z,35.80
2018-02-15T09:24:49.435Z,32.00
2018-02-15T09:27:17.075Z,30.92
2018-02-15T09:29:44.684Z,56.58
2018-02-15T09:32:12.329Z,34.03
2018-02-15T09:34:39.932Z,28.02
2018-02-15T09:37:07.601Z,29.30
2018-02-15T09:39:35.233Z,33.90
2018-02-15T09:42:02.848Z,28.52
2018-02-15T09:44:30.482Z,33.10
2018-02-15T09:46:58.123Z,28.45
2018-02-15T09:49:25.762Z,31.50
2018-02-15T09:51:53.385Z,25.30
2018-02-15T09:54:21.035Z,25.37
2018-02-15T09:56:48.667Z,26.25
2018-02-15T09:59:16.312Z,26.33
2018-02-15T10:01:43.963Z,27.35
2018-02-15T10:04:11.588Z,29.63
2018-02-15T10:06:39.219Z,32.10
2018-02-15T10:09:06.872Z,31.45
2018-02-15T10:11:34.496Z,29.05
2018-02-15T10:14:02.892Z,25.02
2018-02-15T10:16:30.555Z,23.27
2018-02-15T10:18:58.168Z,32.90
2018-02-15T10:21:25.825Z,24.05
2018-02-15T10:23:53.437Z,30.37
2018-02-15T10:26:21.110Z,27.77
2018-02-15T10:28:48.730Z,28.50
2018-02-15T10:31:17.128Z,26.52
2018-02-15T10:33:44.748Z,27.05
2018-02-15T10:36:12.385Z,28.98
2018-02-15T10:38:40.015Z,26.55
2018-02-15T10:41:07.650Z,28.27
2018-02-15T10:43:35.297Z,30.25
2018-02-15T10:46:02.921Z,34.45
2018-02-15T10:48:30.522Z,27.87
2018-02-15T10:50:58.204Z,32.70
2018-02-15T10:53:25.826Z,28.17
2018-02-15T10:55:53.451Z,28.23
2018-02-15T10:58:21.107Z,31.12
2018-02-15T11:00:54.504Z,27.15
2018-02-15T11:03:27.828Z,29.12
2018-02-15T11:06:00.475Z,28.02
2018-02-15T11:08:30.182Z,29.25
2018-02-15T11:10:57.860Z,30.35
2018-02-15T11:13:25.443Z,31.42
2018-02-15T11:15:53.068Z,27.20
2018-02-15T11:18:20.703Z,27.67
2018-02-15T11:20:48.321Z,28.27
2018-02-15T11:23:15.945Z,28.67
2018-02-15T11:25:43.622Z,31.65
2018-02-15T11:28:11.227Z,26.50
2018-02-15T11:30:38.833Z,29.17
2018-02-15T11:33:06.453Z,31.25
2018-02-15T11:35:34.091Z,30.50
2018-02-15T11:38:01.742Z,27.70
2018-02-15T11:40:29.365Z,27.20
2018-02-15T11:42:57.010Z,26.65
2018-02-15T11:45:25.423Z,25.70
2018-02-15T11:47:53.045Z,27.83
2018-02-15T11:50:20.682Z,27.35
2018-02-15T11:52:48.317Z,25.67
2018-02-15T11:55:15.939Z,24.17
2018-02-15T11:57:44.330Z,29.42
2018-02-15T12:00:12.720Z,34.20
2018-02-15T12:02:40.366Z,32.72
2018-02-15T12:05:08.761Z,39.08
2018-02-15T12:07:36.381Z,40.47
2018-02-15T12:10:03.996Z,39.38
2018-02-15T12:12:31.625Z,44.08
2018-02-15T12:14:59.992Z,43.08
2018-02-15T12:17:28.383Z,40.00
2018-02-15T12:19:56.021Z,38.20
2018-02-15T12:22:23.631Z,33.33
2018-02-15T12:24:51.256Z,35.78
2018-02-15T12:27:19.669Z,39.95
2018-02-15T12:29:47.313Z,45.20
2018-02-15T12:32:14.871Z,39.85
2018-02-15T12:34:42.488Z,37.10
2018-02-15T12:37:10.131Z,39.28
2018-02-15T12:39:37.763Z,36.47
2018-02-15T12:42:05.428Z,35.08
2018-02-15T12:44:33.034Z,41.05
2018-02-15T12:47:00.674Z,37.80
2018-02-15T12:49:28.912Z,37.58
2018-02-15T12:51:56.589Z,36.40
2018-02-15T12:54:24.224Z,35.47
2018-02-15T12:56:51.867Z,32.85
2018-02-15T12:59:19.500Z,35.60
2018-02-15T13:01:47.134Z,36.33
2018-02-15T13:04:24.513Z,34.75
2018-02-15T13:06:52.154Z,30.23
2018-02-15T13:09:20.503Z,34.72
2018-02-15T13:11:48.120Z,33.17
2018-02-15T13:14:15.772Z,34.10
2018-02-15T13:16:55.126Z,30.17
2018-02-15T13:19:34.572Z,36.25
2018-02-15T13:22:03.768Z,28.15
2018-02-15T13:24:31.411Z,28.98
2018-02-15T13:26:59.041Z,29.45
2018-02-15T13:29:27.450Z,33.30
2018-02-15T13:31:55.803Z,41.80
2018-02-15T13:34:23.449Z,44.67
2018-02-15T13:36:51.093Z,38.67
2018-02-15T13:39:18.721Z,34.78
2018-02-15T13:41:46.376Z,37.38
2018-02-15T13:44:14.043Z,33.65
2018-02-15T13:46:41.672Z,37.47
2018-02-15T13:49:10.075Z,31.08
2018-02-15T13:51:37.705Z,33.35
2018-02-15T13:54:06.136Z,36.83
2018-02-15T13:56:33.776Z,50.60
2018-02-15T13:59:01.396Z,38.08
2018-02-15T14:01:29.048Z,27.15
2018-02-15T14:03:56.712Z,30.92
2018-02-15T14:06:24.328Z,29.95
2018-02-15T14:08:51.964Z,32.38
2018-02-15T14:11:20.344Z,32.20
2018-02-15T14:13:47.943Z,34.65
2018-02-15T14:16:15.569Z,33.58
2018-02-15T14:18:43.217Z,30.25
2018-02-15T14:21:11.596Z,35.67
2018-02-15T14:23:39.983Z,33.42
2018-02-15T14:26:08.346Z,29.17
2018-02-15T14:28:36.744Z,30.48
2018-02-15T14:31:05.127Z,29.63
2018-02-15T14:33:32.742Z,36.85
2018-02-15T14:36:00.389Z,31.02
2018-02-15T14:38:28.035Z,35.58
2018-02-15T14:40:55.682Z,34.67
2018-02-15T14:43:23.327Z,31.33
2018-02-15T14:45:50.956Z,33.28
2018-02-15T14:48:18.588Z,33.40
2018-02-15T14:50:46.239Z,32.25
2018-02-15T14:53:13.856Z,33.03
2018-02-15T14:55:42.235Z,36.40
2018-02-15T14:58:10.635Z,37.90
2018-02-15T15:00:44.363Z,31.83
2018-02-15T15:03:12.754Z,34.72
2018-02-15T15:05:40.368Z,38.55
2018-02-15T15:08:08.002Z,33.00
2018-02-15T15:10:37.315Z,39.67
2018-02-15T15:13:05.719Z,38.22
2018-02-15T15:15:33.306Z,36.80
2018-02-15T15:18:00.952Z,38.40
2018-02-15T15:20:28.596Z,38.25
2018-02-15T15:22:57.917Z,42.90
2018-02-15T15:25:25.535Z,40.28
2018-02-15T15:27:57.273Z,42.97
2018-02-15T15:30:24.924Z,45.95
2018-02-15T15:32:52.578Z,45.58
2018-02-15T15:35:20.233Z,45.17
2018-02-15T15:37:47.861Z,40.85
2018-02-15T15:40:15.509Z,38.67
2018-02-15T15:42:43.896Z,37.97
2018-02-15T15:45:12.325Z,32.70
2018-02-15T15:47:39.933Z,33.90
2018-02-15T15:50:08.343Z,31.45
2018-02-15T15:52:35.956Z,54.05
2018-02-15T15:55:03.577Z,28.92
2018-02-15T15:57:31.177Z,33.33
2018-02-15T15:59:59.571Z,35.38
2018-02-15T16:02:28.027Z,35.95
2018-02-15T16:04:55.682Z,59.78
2018-02-15T16:07:29.768Z,98.95
2018-02-15T16:09:58.171Z,109.55
2018-02-15T16:12:25.814Z,89.75
2018-02-15T16:14:53.449Z,77.15
2018-02-15T16:17:21.076Z,76.60
2018-02-15T16:19:49.495Z,66.15
2018-02-15T16:22:17.183Z,65.35
2018-02-15T16:24:44.826Z,77.97
2018-02-15T16:27:12.458Z,96.70
2018-02-15T16:29:40.120Z,60.58
2018-02-15T16:32:07.777Z,64.60
2018-02-15T16:34:35.396Z,58.05
2018-02-15T16:37:03.041Z,78.50
2018-02-15T16:39:30.659Z,71.78
2018-02-15T16:41:59.069Z,68.90
2018-02-15T16:44:33.072Z,79.80
2018-02-15T16:47:00.693Z,66.15
2018-02-15T16:49:28.320Z,76.22
2018-02-15T16:51:55.939Z,71.80
2018-02-15T16:54:23.550Z,83.35
2018-02-15T16:56:51.225Z,76.60
2018-02-15T16:59:18.868Z,89.97
2018-02-15T17:01:46.523Z,85.82
2018-02-15T17:04:16.761Z,92.32
2018-02-15T17:06:44.420Z,73.20
2018-02-15T17:09:12.076Z,79.00
2018-02-15T17:11:39.668Z,80.87
2018-02-15T17:14:08.076Z,76.93
2018-02-15T17:16:35.699Z,68.18
2018-02-15T17:19:04.141Z,78.78
2018-02-15T17:21:32.608Z,67.65
2018-02-15T17:24:00.256Z,84.43
2018-02-15T17:26:31.495Z,81.32
2018-02-15T17:28:59.107Z,73.97
2018-02-15T17:31:26.744Z,57.60
2018-02-15T17:33:54.371Z,52.05
2018-02-15T17:36:21.992Z,50.47
2018-02-15T17:38:49.616Z,51.28
2018-02-15T17:41:17.267Z,49.53
2018-02-15T17:43:44.914Z,54.58
2018-02-15T17:46:12.540Z,55.85
2018-02-15T17:48:40.184Z,71.05
2018-02-15T17:51:07.803Z,80.60
2018-02-15T17:53:35.444Z,82.15
2018-02-15T17:56:03.864Z,70.50
2018-02-15T17:58:31.521Z,74.05
2018-02-15T18:00:59.145Z,57.38
2018-02-15T18:03:27.585Z,185.23
2018-02-15T18:05:55.224Z,354.17
2018-02-15T18:08:22.856Z,128.98
2018-02-15T18:10:54.410Z,117.05
2018-02-15T18:13:22.807Z,115.78
2018-02-15T18:15:50.428Z,117.78
2018-02-15T18:18:18.059Z,73.35
2018-02-15T18:20:45.649Z,53.92
2018-02-15T18:26:17.493Z,76.25
2018-02-15T18:28:45.117Z,77.32
2018-02-15T18:31:12.743Z,81.00
2018-02-15T18:33:40.401Z,79.03
2018-02-15T18:36:08.014Z,80.47
2018-02-15T18:38:35.652Z,82.90
2018-02-15T18:41:24.353Z,76.62
2018-02-15T18:43:51.996Z,80.80
2018-02-15T18:46:19.621Z,79.00
2018-02-15T18:48:48.024Z,81.85
2018-02-15T18:51:15.685Z,72.07
2018-02-15T18:53:43.305Z,63.65
2018-02-15T18:56:10.949Z,75.30
2018-02-15T18:58:38.597Z,57.50
2018-02-15T19:01:10.209Z,51.30
2018-02-15T19:03:37.809Z,49.33
2018-02-15T19:06:05.423Z,45.53
2018-02-15T19:08:33.871Z,50.20
2018-02-15T19:11:01.516Z,72.47
2018-02-15T19:13:29.113Z,53.28
2018-02-15T19:15:56.736Z,58.08
2018-02-15T19:18:31.599Z,54.70
2018-02-15T19:20:59.255Z,52.08
2018-02-15T19:23:26.876Z,50.97
2018-02-15T19:25:54.551Z,57.13
2018-02-15T19:28:22.185Z,45.95
2018-02-15T19:30:49.847Z,43.65
2018-02-15T19:33:17.441Z,50.63
2018-02-15T19:35:45.111Z,52.50
2018-02-15T19:38:12.727Z,64.10
2018-02-15T19:40:40.365Z,61.88
2018-02-15T19:43:08.798Z,54.75
2018-02-15T19:45:36.417Z,65.30
2018-02-15T19:48:04.821Z,62.40
2018-02-15T19:50:32.472Z,64.07
2018-02-15T19:53:00.086Z,49.75
2018-02-15T19:55:27.754Z,54.83
2018-02-15T19:57:55.378Z,52.50
2018-02-15T20:00:23.064Z,57.67
2018-02-15T20:02:50.683Z,53.80
2018-02-15T20:05:18.327Z,62.53
2018-02-15T20:07:46.000Z,60.08
2018-02-15T20:10:14.375Z,82.00
2018-02-15T20:12:41.980Z,122.50
2018-02-15T20:15:09.600Z,76.47
2018-02-15T20:17:37.223Z,50.67
2018-02-15T20:20:25.537Z,52.10
2018-02-15T20:22:53.207Z,55.55
2018-02-15T20:25:20.850Z,55.03
2018-02-15T20:27:54.054Z,58.03
2018-02-15T20:30:21.698Z,54.97
2018-02-15T20:32:49.354Z,53.70
2018-02-15T20:35:16.975Z,57.40
2018-02-15T20:37:50.956Z,55.67
2018-02-15T20:40:24.177Z,43.65
2018-02-15T20:42:52.596Z,44.08
2018-02-15T20:45:20.227Z,46.60
2018-02-15T20:47:48.634Z,52.72
2018-02-15T20:50:22.761Z,46.65
2018-02-15T20:52:56.047Z,47.30
2018-02-15T20:55:29.340Z,51.78
2018-02-15T20:57:56.987Z,62.85
2018-02-15T21:00:24.599Z,70.28
2018-02-15T21:02:52.232Z,63.17
2018-02-15T21:05:19.898Z,72.03
2018-02-15T21:07:47.551Z,72.72
2018-02-15T21:10:15.174Z,68.78
2018-02-15T21:12:43.591Z,52.70
2018-02-15T21:15:14.764Z,56.03
2018-02-15T21:17:42.439Z,56.70
2018-02-15T21:20:10.062Z,53.60
2018-02-15T21:22:37.684Z,55.67
2018-02-15T21:25:06.074Z,49.88
2018-02-15T21:27:33.706Z,54.05
2018-02-15T21:30:01.364Z,56.00
2018-02-15T21:32:29.778Z,61.60
2018-02-15T21:34:57.393Z,67.57
2018-02-15T21:37:25.025Z,59.70
2018-02-15T21:39:52.675Z,51.80
2018-02-15T21:42:20.312Z,62.05
2018-02-15T21:44:47.952Z,53.87
2018-02-15T21:47:15.609Z,50.42
2018-02-15T21:49:43.258Z,52.42
2018-02-15T21:52:10.928Z,61.03
2018-02-15T21:54:38.548Z,50.08
2018-02-15T21:57:06.245Z,63.28
2018-02-15T21:59:33.892Z,45.80
2018-02-15T22:02:01.514Z,48.78
2018-02-15T22:04:29.127Z,47.40
2018-02-15T22:06:56.772Z,48.85
2018-02-15T22:09:24.412Z,60.00
2018-02-15T22:11:52.036Z,62.15
2018-02-15T22:14:20.440Z,52.80
2018-02-15T22:16:48.098Z,52.03
2018-02-15T22:19:15.756Z,68.47
2018-02-15T22:21:43.400Z,59.47
2018-02-15T22:24:11.768Z,111.35
2018-02-15T22:26:39.383Z,86.30
2018-02-15T22:29:07.013Z,69.57
2018-02-15T22:31:34.608Z,57.33
2018-02-15T22:34:02.254Z,55.33
2018-02-15T22:36:29.828Z,58.35
2018-02-15T22:38:57.396Z,59.78
2018-02-15T22:41:25.031Z,64.60
2018-02-15T22:43:52.639Z,69.15
2018-02-15T22:46:20.255Z,63.10
2018-02-15T22:48:47.886Z,58.50
2018-02-15T22:51:16.255Z,57.22
2018-02-15T22:53:43.849Z,55.80
2018-02-15T22:56:11.442Z,52.47
2018-02-15T22:58:39.036Z,47.47
2018-02-15T23:01:07.403Z,48.72
2018-02-15T23:03:35.023Z,56.15
2018-02-15T23:06:02.588Z,50.70
2018-02-15T23:08:30.191Z,54.00
2018-02-15T23:10:58.543Z,49.72
2018-02-15T23:13:26.109Z,49.28
2018-02-15T23:15:53.744Z,59.95
2018-02-15T23:18:21.352Z,53.42
2018-02-15T23:20:48.986Z,50.05
2018-02-15T23:23:16.559Z,48.75
2018-02-15T23:25:44.170Z,54.53
2018-02-15T23:28:11.751Z,48.60
2018-02-15T23:30:39.363Z,47.55
2018-02-15T23:33:07.679Z,55.47
2018-02-15T23:35:35.252Z,59.17
2018-02-15T23:38:02.827Z,48.65
2018-02-15T23:40:30.434Z,52.47
2018-02-15T23:42:58.003Z,54.45
2018-02-15T23:45:25.559Z,49.83
2018-02-15T23:47:53.163Z,57.55
2018-02-15T23:50:20.735Z,58.35
2018-02-15T23:52:48.316Z,56.15
2018-02-15T23:55:16.698Z,60.35
2018-02-15T23:57:45.103Z,62.38
